Time;durP1;ratioP1;P1;durP2;ratioP2;P2;SDS_P1;SDS_P2;PMS_P1;PMS_P2;Temp;Humidity;BMP_temperature;BMP_pressure;BME280_temperature;BME280_humidity;BME280_pressure;Samples;Min_cycle;Max_cycle;Signal;HPM_P1;HPM_P2
2022/06/05 00:00:30;;;;;;;;;;;;;;;21.54;29.94;97981.56;4994828;28;1141;-75
2022/06/05 00:03:07;;;;;;;;;;;;;;;21.45;29.81;97978.56;4994564;28;938;-75
2022/06/05 00:05:44;;;;;;;;;;;;;;;21.44;29.83;97982.66;5012501;28;952;-76
2022/06/05 00:08:18;;;;;;;;;;;;;;;21.35;29.75;97968.31;5016081;28;1976;-76
2022/06/05 00:11:03;;;;;;;;;;;;;;;21.50;29.83;97980.88;5015302;28;920;-76
2022/06/05 00:13:29;;;;;;;;;;;;;;;21.56;29.46;97973.44;5015658;28;1004;-76
2022/06/05 00:15:54;;;;;;;;;;;;;;;21.41;29.67;97966.56;5016239;28;930;-76
2022/06/05 00:18:20;;;;;;;;;;;;;;;21.37;29.61;97969.50;5014731;28;1105;-75
2022/06/05 00:20:45;;;;;;;;;;;;;;;21.38;29.62;97956.13;5014779;28;969;-76
2022/06/05 00:23:11;;;;;;;;;;;;;;;21.31;29.90;97952.25;5015037;28;924;-76
2022/06/05 00:25:43;;;;;;;;;;;;;;;21.43;29.47;97947.88;5016521;28;1113;-76
2022/06/05 00:28:12;;;;;;;;;;;;;;;21.42;29.29;97942.69;5015943;28;1902;-75
2022/06/05 00:30:46;;;;;;;;;;;;;;;21.40;29.42;97940.31;5016351;28;891;-76
2022/06/05 00:33:44;;;;;;;;;;;;;;;21.33;29.75;97938.44;5016221;28;911;-76
2022/06/05 00:36:26;;;;;;;;;;;;;;;21.30;29.42;97928.03;4993993;28;1066;-76
2022/06/05 00:38:54;;;;;;;;;;;;;;;21.47;29.12;97930.81;4977698;28;997;-76
2022/06/05 00:41:31;;;;;;;;;;;;;;;21.40;29.47;97928.16;4994017;28;1021;-76
2022/06/05 00:43:58;;;;;;;;;;;;;;;21.49;29.83;97917.00;4994161;28;1036;-76
2022/06/05 00:46:23;;;;;;;;;;;;;;;21.98;29.66;97925.34;4977647;28;1984;-76
2022/06/05 00:48:49;;;;;;;;;;;;;;;22.12;29.36;97924.94;4993836;28;1080;-76
2022/06/05 00:51:14;;;;;;;;;;;;;;;22.07;29.83;97925.44;4993788;28;1088;-76
2022/06/05 00:53:40;;;;;;;;;;;;;;;21.76;29.86;97920.28;4994024;28;984;-76
2022/06/05 00:56:05;;;;;;;;;;;;;;;21.64;29.81;97918.19;4993875;28;1135;-75
2022/06/05 00:58:31;;;;;;;;;;;;;;;21.56;29.87;97911.16;4977389;28;1334;-76
2022/06/05 01:00:56;;;;;;;;;;;;;;;21.54;29.70;97907.97;4994161;28;1103;-76
2022/06/05 01:03:22;;;;;;;;;;;;;;;21.49;30.10;97906.47;4993987;28;1066;-76
2022/06/05 01:05:47;;;;;;;;;;;;;;;21.39;30.23;97909.59;4977719;28;1093;-75
2022/06/05 01:08:13;;;;;;;;;;;;;;;21.40;30.42;97903.50;4993651;28;1910;-76
2022/06/05 01:10:44;;;;;;;;;;;;;;;21.48;29.91;97909.75;4956884;28;1127;-76
2022/06/05 01:13:12;;;;;;;;;;;;;;;21.50;29.70;97896.75;4993535;28;987;-75
2022/06/05 01:15:44;;;;;;;;;;;;;;;21.41;29.79;97915.63;4993847;28;938;-75
2022/06/05 01:18:12;;;;;;;;;;;;;;;21.51;29.97;97903.22;4993837;28;1153;-77
2022/06/05 01:20:55;;;;;;;;;;;;;;;21.54;29.51;97899.47;4994037;28;1003;-75
2022/06/05 01:23:28;;;;;;;;;;;;;;;21.50;29.51;97895.94;4993638;28;961;-75
2022/06/05 01:26:09;;;;;;;;;;;;;;;21.40;29.63;97897.03;4990246;28;988;-76
2022/06/05 01:28:36;;;;;;;;;;;;;;;21.39;29.71;97889.78;4974102;28;954;-75
2022/06/05 01:31:05;;;;;;;;;;;;;;;21.44;29.75;97884.38;4974282;28;987;-76
2022/06/05 01:33:30;;;;;;;;;;;;;;;21.22;30.16;97892.63;4975461;28;1045;-76
2022/06/05 01:36:02;;;;;;;;;;;;;;;21.42;29.43;97895.34;4961316;28;1626;-76
2022/06/05 01:38:45;;;;;;;;;;;;;;;21.43;29.40;97896.94;4977896;28;1131;-76
2022/06/05 01:41:15;;;;;;;;;;;;;;;21.31;29.53;97889.19;4983709;28;1046;-75
2022/06/05 01:43:42;;;;;;;;;;;;;;;21.26;29.52;97898.19;4980653;28;1137;-75
2022/06/05 01:46:10;;;;;;;;;;;;;;;21.36;29.42;97891.47;4957953;29;1906;-76
2022/06/05 01:48:46;;;;;;;;;;;;;;;21.24;29.63;97895.81;4942275;29;972;-76
2022/06/05 01:51:20;;;;;;;;;;;;;;;21.35;29.23;97883.41;4942041;29;1173;-75
2022/06/05 01:53:46;;;;;;;;;;;;;;;21.33;29.57;97903.69;4941962;29;964;-75
2022/06/05 01:56:11;;;;;;;;;;;;;;;21.45;28.97;97896.47;4950157;28;983;-76
2022/06/05 01:58:44;;;;;;;;;;;;;;;21.44;29.28;97892.84;4996925;28;999;-75
2022/06/05 02:01:17;;;;;;;;;;;;;;;21.41;29.20;97892.97;4980500;28;1034;-76
2022/06/05 02:03:44;;;;;;;;;;;;;;;21.41;29.49;97901.47;4980696;28;967;-75
2022/06/05 02:06:20;;;;;;;;;;;;;;;21.63;29.92;97904.50;4980342;28;1899;-76
2022/06/05 02:08:50;;;;;;;;;;;;;;;21.89;29.41;97902.53;4980634;28;1080;-75
2022/06/05 02:11:22;;;;;;;;;;;;;;;21.78;29.52;97895.13;4980030;28;954;-76
2022/06/05 02:13:48;;;;;;;;;;;;;;;21.46;29.96;97892.44;4980493;28;878;-76
2022/06/05 02:16:14;;;;;;;;;;;;;;;21.50;29.80;97898.78;4983326;28;1166;-75
2022/06/05 02:18:39;;;;;;;;;;;;;;;21.55;29.47;97895.38;5018126;28;919;-76
2022/06/05 02:21:05;;;;;;;;;;;;;;;21.47;29.81;97896.84;5018257;28;930;-75
2022/06/05 02:23:34;;;;;;;;;;;;;;;21.33;29.72;97903.69;5018129;28;948;-76
2022/06/05 02:26:00;;;;;;;;;;;;;;;21.47;29.30;97902.50;5017832;28;1903;-75
2022/06/05 02:28:26;;;;;;;;;;;;;;;21.51;29.48;97897.56;5017180;28;993;-76
2022/06/05 02:30:52;;;;;;;;;;;;;;;21.42;29.48;97894.56;5018144;28;903;-76
2022/06/05 02:33:36;;;;;;;;;;;;;;;21.46;29.44;97903.75;5018147;28;947;-75
2022/06/05 02:36:24;;;;;;;;;;;;;;;21.39;29.41;97901.09;5017819;28;920;-76
2022/06/05 02:38:57;;;;;;;;;;;;;;;21.16;29.75;97905.72;4995829;28;1108;-75
2022/06/05 02:41:27;;;;;;;;;;;;;;;21.13;29.98;97909.44;4980024;28;959;-76
2022/06/05 02:46:51;;;;;;;;;;;;;;;21.26;29.47;97909.50;4981555;28;1964;-75
2022/06/05 02:49:27;;;;;;;;;;;;;;;21.29;29.72;97912.22;4979614;28;1060;-76
2022/06/05 02:51:53;;;;;;;;;;;;;;;21.26;29.23;97910.31;4979773;28;973;-76
2022/06/05 02:54:19;;;;;;;;;;;;;;;21.35;29.05;97900.41;4979563;28;954;-76
2022/06/05 02:56:45;;;;;;;;;;;;;;;21.45;28.91;97910.63;4995839;28;875;-76
2022/06/05 02:59:10;;;;;;;;;;;;;;;21.31;29.35;97906.97;4995778;28;1034;-75
2022/06/05 03:04:19;;;;;;;;;;;;;;;21.70;29.02;97901.44;4995405;28;954;-76
2022/06/05 03:06:46;;;;;;;;;;;;;;;21.99;28.91;97890.09;4995549;28;1977;-76
2022/06/05 03:09:12;;;;;;;;;;;;;;;22.11;28.54;97900.66;4995759;28;1008;-75
2022/06/05 03:11:37;;;;;;;;;;;;;;;21.75;29.33;97903.72;4995480;28;964;-76
2022/06/05 03:14:03;;;;;;;;;;;;;;;21.55;29.28;97899.03;4979184;28;983;-76
2022/06/05 03:16:28;;;;;;;;;;;;;;;21.51;29.46;97898.34;5007810;28;1279;-75
2022/06/05 03:18:54;;;;;;;;;;;;;;;21.54;29.23;97896.63;5017061;28;868;-76
2022/06/05 03:21:19;;;;;;;;;;;;;;;21.38;29.44;97891.81;5017015;28;1006;-75
2022/06/05 03:23:45;;;;;;;;;;;;;;;21.39;29.48;97884.13;5017094;28;956;-76
2022/06/05 03:26:11;;;;;;;;;;;;;;;21.40;29.42;97885.69;4998534;28;1975;-76
2022/06/05 03:28:37;;;;;;;;;;;;;;;21.43;29.52;97882.00;4998197;28;1012;-76
2022/06/05 03:31:03;;;;;;;;;;;;;;;21.24;29.65;97881.66;5017050;28;1040;-76
2022/06/05 03:33:28;;;;;;;;;;;;;;;21.31;29.49;97881.50;5016788;28;897;-75
2022/06/05 03:35:54;;;;;;;;;;;;;;;21.38;29.53;97882.53;5016769;28;874;-76
2022/06/05 03:38:19;;;;;;;;;;;;;;;21.31;29.69;97881.50;5016603;28;988;-76
2022/06/05 03:40:45;;;;;;;;;;;;;;;21.38;29.44;97883.31;5016911;28;974;-76
2022/06/05 03:43:10;;;;;;;;;;;;;;;21.29;29.58;97869.00;5016619;28;1076;-75
2022/06/05 03:45:36;;;;;;;;;;;;;;;21.29;29.53;97874.66;5016952;28;910;-75
2022/06/05 03:48:01;;;;;;;;;;;;;;;21.38;29.76;97871.22;5016502;28;1918;-76
2022/06/05 03:50:27;;;;;;;;;;;;;;;21.38;29.40;97876.88;5015796;28;987;-75
2022/06/05 03:52:52;;;;;;;;;;;;;;;21.30;29.54;97874.25;4982011;28;924;-76
2022/06/05 03:55:19;;;;;;;;;;;;;;;21.20;29.76;97866.03;5016735;28;908;-76
2022/06/05 03:57:45;;;;;;;;;;;;;;;21.44;29.29;97869.41;5016294;28;999;-76
2022/06/05 04:00:10;;;;;;;;;;;;;;;21.31;29.57;97864.50;5017136;28;986;-76
2022/06/05 04:02:38;;;;;;;;;;;;;;;21.29;29.64;97864.13;5010630;28;1045;-76
2022/06/05 04:05:04;;;;;;;;;;;;;;;21.43;29.69;97870.66;4996916;28;924;-76
2022/06/05 04:07:30;;;;;;;;;;;;;;;21.30;29.66;97865.75;4978499;28;1985;-76
2022/06/05 04:09:55;;;;;;;;;;;;;;;21.28;29.90;97856.88;4997255;28;1008;-75
2022/06/05 04:12:20;;;;;;;;;;;;;;;21.26;29.76;97859.38;4996695;28;1016;-75
2022/06/05 04:14:46;;;;;;;;;;;;;;;21.34;29.95;97854.31;4996750;28;857;-76
2022/06/05 04:17:11;;;;;;;;;;;;;;;21.32;30.10;97851.16;4996705;28;1129;-76
2022/06/05 04:19:37;;;;;;;;;;;;;;;21.23;29.87;97853.81;4996613;28;1275;-76
2022/06/05 04:22:02;;;;;;;;;;;;;;;21.27;29.91;97846.81;4996496;28;1220;-76
2022/06/05 04:24:28;;;;;;;;;;;;;;;21.30;30.08;97845.94;4974719;28;1240;-75
2022/06/05 04:26:53;;;;;;;;;;;;;;;21.32;29.84;97846.28;4974801;28;1969;-76
2022/06/05 04:29:19;;;;;;;;;;;;;;;21.37;30.01;97842.13;4974661;28;1224;-76
2022/06/05 04:31:45;;;;;;;;;;;;;;;21.31;29.96;97843.91;4974488;28;1260;-76
2022/06/05 04:34:11;;;;;;;;;;;;;;;21.28;30.08;97839.09;4974787;28;1212;-76
2022/06/05 04:36:37;;;;;;;;;;;;;;;21.37;29.84;97835.66;4935894;29;1162;-76
2022/06/05 04:39:02;;;;;;;;;;;;;;;21.39;30.07;97838.84;4935236;29;1261;-76
2022/06/05 04:41:28;;;;;;;;;;;;;;;21.56;29.41;97834.72;4935910;29;1008;-76
2022/06/05 04:43:53;;;;;;;;;;;;;;;21.44;29.68;97836.25;4936070;29;884;-76
2022/06/05 04:46:19;;;;;;;;;;;;;;;21.22;30.25;97836.03;4936165;29;1941;-76
2022/06/05 04:48:45;;;;;;;;;;;;;;;21.52;29.56;97845.34;4936472;29;1005;-76
2022/06/05 04:51:12;;;;;;;;;;;;;;;21.56;29.60;97849.66;4935925;29;1349;-76
2022/06/05 04:53:38;;;;;;;;;;;;;;;21.50;29.66;97850.66;4936670;29;1042;-76
2022/06/05 04:56:04;;;;;;;;;;;;;;;21.43;30.00;97850.84;4950478;29;1006;-75
2022/06/05 04:58:30;;;;;;;;;;;;;;;21.51;29.84;97844.56;4922756;29;1043;-76
2022/06/05 05:00:55;;;;;;;;;;;;;;;21.44;30.05;97835.47;4954987;29;1039;-75
2022/06/05 05:03:21;;;;;;;;;;;;;;;21.48;30.10;97841.81;4955398;29;1027;-76
2022/06/05 05:05:46;;;;;;;;;;;;;;;21.52;30.22;97842.50;4955222;29;987;-76
2022/06/05 05:08:12;;;;;;;;;;;;;;;21.53;29.93;97846.94;4956037;28;1918;-76
2022/06/05 05:10:37;;;;;;;;;;;;;;;21.39;30.28;97838.84;4958671;29;1055;-75
2022/06/05 05:13:03;;;;;;;;;;;;;;;21.47;30.01;97831.75;4962572;28;1012;-76
2022/06/05 05:15:28;;;;;;;;;;;;;;;21.40;30.45;97840.41;5000358;28;946;-75
2022/06/05 05:17:53;;;;;;;;;;;;;;;21.38;30.48;97837.25;4999923;28;1124;-76
2022/06/05 05:20:20;;;;;;;;;;;;;;;21.46;30.22;97835.81;5002385;28;1402;-76
2022/06/05 05:22:45;;;;;;;;;;;;;;;21.48;30.00;97842.59;5010327;28;1268;-76
2022/06/05 05:25:11;;;;;;;;;;;;;;;21.35;30.67;97844.63;5005235;28;1301;-76
2022/06/05 05:27:36;;;;;;;;;;;;;;;21.45;30.35;97837.03;5006607;28;1980;-76
2022/06/05 05:30:02;;;;;;;;;;;;;;;21.47;30.60;97843.06;4998730;28;1230;-76
2022/06/05 05:32:28;;;;;;;;;;;;;;;21.40;30.65;97848.91;5005640;28;1297;-76
2022/06/05 05:34:53;;;;;;;;;;;;;;;21.43;30.66;97842.38;5006812;28;1293;-75
2022/06/05 05:37:19;;;;;;;;;;;;;;;21.42;30.76;97849.28;5006973;28;1229;-76
2022/06/05 05:42:30;;;;;;;;;;;;;;;21.36;30.77;97845.41;5005340;28;1155;-76
2022/06/05 05:44:56;;;;;;;;;;;;;;;21.41;30.64;97848.47;5006682;28;1340;-75
2022/06/05 05:47:23;;;;;;;;;;;;;;;21.45;30.83;97854.84;5015765;28;2603;-76
2022/06/05 05:49:55;;;;;;;;;;;;;;;21.50;30.74;97857.13;5015685;28;1241;-76
2022/06/05 05:52:21;;;;;;;;;;;;;;;21.57;30.52;97853.28;4975195;28;1246;-76
2022/06/05 05:54:46;;;;;;;;;;;;;;;21.15;30.68;97807.94;5015767;28;1353;-75
2022/06/05 05:57:12;;;;;;;;;;;;;;;21.57;30.33;97850.47;5007040;28;1311;-76
2022/06/05 05:59:37;;;;;;;;;;;;;;;21.48;30.78;97850.31;4989976;28;1285;-76
2022/06/05 06:02:03;;;;;;;;;;;;;;;21.56;30.68;97849.66;5006812;28;1262;-75
2022/06/05 06:04:28;;;;;;;;;;;;;;;21.55;30.73;97852.94;5004453;28;1257;-76
2022/06/05 06:06:54;;;;;;;;;;;;;;;21.50;30.40;97856.31;5005147;28;1898;-74
2022/06/05 06:09:20;;;;;;;;;;;;;;;21.50;30.59;97851.47;5007600;28;1298;-74
2022/06/05 06:11:45;;;;;;;;;;;;;;;21.44;30.63;97847.56;5004701;28;1277;-74
2022/06/05 06:14:11;;;;;;;;;;;;;;;21.46;30.83;97844.31;4985748;28;1259;-74
2022/06/05 06:16:36;;;;;;;;;;;;;;;21.51;30.74;97843.75;5004504;28;1611;-74
2022/06/05 06:19:02;;;;;;;;;;;;;;;21.47;30.94;97843.06;5000776;28;1298;-74
2022/06/05 06:21:27;;;;;;;;;;;;;;;21.59;30.67;97847.97;5009150;28;1276;-74
2022/06/05 06:23:53;;;;;;;;;;;;;;;21.48;30.82;97847.47;5007507;28;1272;-74
2022/06/05 06:26:18;;;;;;;;;;;;;;;21.46;30.92;97849.97;5008556;28;1918;-74
2022/06/05 06:28:44;;;;;;;;;;;;;;;21.70;30.37;97842.78;5009411;28;1214;-74
2022/06/05 06:31:10;;;;;;;;;;;;;;;21.53;30.88;97841.25;5007169;28;1280;-74
2022/06/05 06:33:36;;;;;;;;;;;;;;;21.53;30.51;97849.75;5008018;28;1193;-74
2022/06/05 06:36:05;;;;;;;;;;;;;;;21.62;30.80;97849.13;5008622;28;1230;-73
2022/06/05 06:38:31;;;;;;;;;;;;;;;21.52;30.71;97848.19;4982138;28;1224;-74
2022/06/05 06:41:07;;;;;;;;;;;;;;;21.57;30.84;97847.63;4993398;28;1365;-74
2022/06/05 06:43:32;;;;;;;;;;;;;;;21.68;30.19;97839.59;4979599;28;945;-74
2022/06/05 06:45:58;;;;;;;;;;;;;;;21.64;30.37;97844.56;4957007;29;1114;-74
2022/06/05 06:48:26;;;;;;;;;;;;;;;21.50;30.58;97851.47;4941004;29;1988;-74
2022/06/05 06:50:53;;;;;;;;;;;;;;;21.48;30.93;97848.28;4957094;29;1065;-74
2022/06/05 06:53:18;;;;;;;;;;;;;;;21.52;30.44;97845.34;4956912;29;984;-74
2022/06/05 06:55:44;;;;;;;;;;;;;;;21.48;30.65;97845.44;4956906;29;962;-74
2022/06/05 06:58:09;;;;;;;;;;;;;;;21.58;30.43;97849.22;4956915;29;1026;-74
2022/06/05 07:00:35;;;;;;;;;;;;;;;21.49;30.85;97840.56;4956656;29;1084;-73
2022/06/05 07:03:00;;;;;;;;;;;;;;;21.62;30.41;97841.41;4956944;29;1011;-74
2022/06/05 07:05:25;;;;;;;;;;;;;;;21.66;30.48;97850.59;4956708;29;1014;-74
2022/06/05 07:07:52;;;;;;;;;;;;;;;21.54;30.72;97837.19;4956906;29;1927;-74
2022/06/05 07:10:17;;;;;;;;;;;;;;;21.60;30.77;97835.38;4988326;28;1808;-74
2022/06/05 07:12:42;;;;;;;;;;;;;;;21.71;30.46;97846.41;4995438;28;1034;-74
2022/06/05 07:15:08;;;;;;;;;;;;;;;21.51;30.77;97847.38;4995243;28;995;-74
2022/06/05 07:17:34;;;;;;;;;;;;;;;21.59;30.77;97847.97;5009995;28;1069;-74
2022/06/05 07:19:59;;;;;;;;;;;;;;;21.56;30.62;97849.66;5014974;28;1025;-74
2022/06/05 07:22:25;;;;;;;;;;;;;;;21.40;31.25;97848.91;4981632;28;1027;-74
2022/06/05 07:24:50;;;;;;;;;;;;;;;21.64;30.62;97855.09;5015211;28;1065;-74
2022/06/05 07:27:16;;;;;;;;;;;;;;;21.47;30.71;97845.91;4982005;28;1899;-74
2022/06/05 07:29:41;;;;;;;;;;;;;;;21.54;30.65;97848.50;5014513;28;1011;-74
2022/06/05 07:32:07;;;;;;;;;;;;;;;21.68;30.46;97850.94;5014232;28;1121;-74
2022/06/05 07:34:32;;;;;;;;;;;;;;;21.63;30.88;97856.34;5014316;28;967;-74
2022/06/05 07:36:58;;;;;;;;;;;;;;;21.65;30.73;97846.16;5014602;28;1038;-74
2022/06/05 07:39:26;;;;;;;;;;;;;;;21.77;30.63;97841.78;4981607;28;964;-73
2022/06/05 07:41:51;;;;;;;;;;;;;;;21.69;30.50;97846.84;5016281;28;942;-74
2022/06/05 07:44:17;;;;;;;;;;;;;;;21.63;30.47;97848.66;4998027;28;974;-74
2022/06/05 07:46:42;;;;;;;;;;;;;;;21.68;30.42;97839.59;5016613;28;2376;-74
2022/06/05 07:49:07;;;;;;;;;;;;;;;21.73;30.42;97841.88;4981610;28;1156;-74
2022/06/05 07:54:27;;;;;;;;;;;;;;;21.72;30.55;97836.69;5016355;28;951;-74
2022/06/05 07:56:56;;;;;;;;;;;;;;;21.57;30.65;97839.13;5016825;28;930;-74
2022/06/05 07:59:22;;;;;;;;;;;;;;;21.58;30.90;97846.38;5016576;28;988;-73
2022/06/05 08:01:47;;;;;;;;;;;;;;;21.47;31.00;97848.72;5016664;28;1039;-74
2022/06/05 08:04:13;;;;;;;;;;;;;;;21.54;31.21;97845.69;5016539;28;927;-74
2022/06/05 08:06:39;;;;;;;;;;;;;;;21.66;30.67;97844.94;5016366;28;1902;-74
2022/06/05 08:09:05;;;;;;;;;;;;;;;21.57;30.64;97848.41;5016817;28;973;-73
2022/06/05 08:11:31;;;;;;;;;;;;;;;21.78;30.58;97840.53;5016379;28;988;-74
2022/06/05 08:13:57;;;;;;;;;;;;;;;21.66;30.80;97836.44;5016854;28;951;-74
2022/06/05 08:16:23;;;;;;;;;;;;;;;21.72;30.54;97834.63;5016289;28;1402;-74
2022/06/05 08:18:51;;;;;;;;;;;;;;;21.71;30.65;97835.88;5016142;28;979;-74
2022/06/05 08:21:18;;;;;;;;;;;;;;;21.65;30.86;97840.50;5016349;28;910;-74
2022/06/05 08:23:43;;;;;;;;;;;;;;;21.71;30.59;97837.91;5016029;28;917;-74
2022/06/05 08:26:09;;;;;;;;;;;;;;;21.53;30.92;97830.72;5016008;28;899;-74
2022/06/05 08:28:34;;;;;;;;;;;;;;;21.57;31.15;97836.31;5015949;28;1962;-74
2022/06/05 08:31:00;;;;;;;;;;;;;;;21.65;31.03;97834.84;5016346;28;884;-74
2022/06/05 08:33:25;;;;;;;;;;;;;;;21.56;31.31;97837.53;5016120;28;937;-74
2022/06/05 08:35:51;;;;;;;;;;;;;;;21.64;31.14;97832.47;4942743;28;1397;-74
2022/06/05 08:41:28;;;;;;;;;;;;;;;21.70;30.80;97825.00;4974357;28;997;-74
2022/06/05 08:44:12;;;;;;;;;;;;;;;21.70;30.93;97822.16;4976723;28;978;-74
2022/06/05 08:46:45;;;;;;;;;;;;;;;21.53;31.11;97827.09;4978301;28;1902;-74
2022/06/05 08:49:11;;;;;;;;;;;;;;;21.60;31.01;97826.88;4959243;29;971;-74
2022/06/05 08:51:40;;;;;;;;;;;;;;;21.80;30.60;97824.66;4958932;28;973;-74
2022/06/05 08:54:06;;;;;;;;;;;;;;;21.81;30.65;97817.78;4959399;28;1199;-74
2022/06/05 08:56:37;;;;;;;;;;;;;;;21.75;31.06;97822.41;4958890;29;1195;-74
2022/06/05 08:59:07;;;;;;;;;;;;;;;21.71;31.11;97816.06;4942990;29;1007;-74
2022/06/05 09:01:36;;;;;;;;;;;;;;;21.63;31.37;97819.56;4942811;29;1029;-75
2022/06/05 09:04:02;;;;;;;;;;;;;;;21.65;31.12;97812.19;4959119;28;961;-74
2022/06/05 09:06:35;;;;;;;;;;;;;;;21.75;31.12;97813.91;4965525;28;1898;-74
2022/06/05 09:09:05;;;;;;;;;;;;;;;21.62;31.15;97813.09;4962158;28;1040;-74
2022/06/05 09:11:37;;;;;;;;;;;;;;;21.84;30.93;97816.88;4978309;28;1113;-75
2022/06/05 09:14:05;;;;;;;;;;;;;;;21.83;30.78;97806.00;4978116;28;1023;-75
2022/06/05 09:16:31;;;;;;;;;;;;;;;21.70;30.87;97808.00;4977751;28;1162;-75
2022/06/05 09:18:57;;;;;;;;;;;;;;;21.85;30.84;97804.28;4962250;28;1004;-75
2022/06/05 09:21:24;;;;;;;;;;;;;;;21.77;31.16;97808.59;5016889;28;1045;-75
2022/06/05 09:23:59;;;;;;;;;;;;;;;21.77;30.97;97808.59;5017498;28;971;-75
2022/06/05 09:26:38;;;;;;;;;;;;;;;21.82;30.81;97793.88;5017002;28;1923;-75
2022/06/05 09:29:04;;;;;;;;;;;;;;;21.85;31.05;97804.28;5018530;28;921;-74
2022/06/05 09:31:48;;;;;;;;;;;;;;;21.89;30.87;97797.72;5019404;28;1111;-75
2022/06/05 09:34:16;;;;;;;;;;;;;;;21.81;31.23;97802.81;5019054;28;940;-75
2022/06/05 09:36:44;;;;;;;;;;;;;;;21.86;31.20;97793.75;4996886;28;977;-75
2022/06/05 09:39:22;;;;;;;;;;;;;;;21.87;30.74;97794.56;4980937;28;976;-75
2022/06/05 09:42:16;;;;;;;;;;;;;;;21.71;31.17;97782.09;4996923;28;950;-75
2022/06/05 09:44:42;;;;;;;;;;;;;;;21.91;30.83;97781.06;4939036;29;1135;-75
2022/06/05 09:47:09;;;;;;;;;;;;;;;21.76;31.17;97777.88;4939207;29;1906;-75
2022/06/05 09:49:35;;;;;;;;;;;;;;;21.90;30.89;97787.97;4920013;29;1061;-74
2022/06/05 09:52:13;;;;;;;;;;;;;;;21.97;30.70;97788.56;4903815;29;1006;-75
2022/06/05 09:54:39;;;;;;;;;;;;;;;21.85;31.00;97778.00;4919203;29;1012;-75
2022/06/05 10:00:09;;;;;;;;;;;;;;;21.79;31.42;97769.28;4919789;29;1186;-75
2022/06/05 10:02:36;;;;;;;;;;;;;;;21.81;31.38;97766.81;4919893;29;1072;-75
2022/06/05 10:05:09;;;;;;;;;;;;;;;21.79;31.13;97766.44;4900565;29;967;-75
2022/06/05 10:07:37;;;;;;;;;;;;;;;21.75;31.21;97771.41;4901606;29;1982;-75
2022/06/05 10:10:04;;;;;;;;;;;;;;;21.76;31.45;97773.03;4922672;29;1000;-75
2022/06/05 10:12:48;;;;;;;;;;;;;;;21.88;31.34;97768.63;4938509;29;1005;-75
2022/06/05 10:15:14;;;;;;;;;;;;;;;21.82;31.41;97779.72;4924002;29;2060;-75
2022/06/05 10:17:49;;;;;;;;;;;;;;;21.71;31.68;97781.25;4900447;29;1059;-75
2022/06/05 10:20:17;;;;;;;;;;;;;;;21.83;31.33;97789.78;4901786;29;929;-75
2022/06/05 10:22:45;;;;;;;;;;;;;;;21.89;31.26;97794.91;4938528;29;1012;-75
2022/06/05 10:25:11;;;;;;;;;;;;;;;21.96;31.06;97803.16;4938373;29;1087;-75
2022/06/05 10:27:36;;;;;;;;;;;;;;;21.84;31.39;97801.91;4938550;29;1964;-75
2022/06/05 10:30:02;;;;;;;;;;;;;;;21.92;31.56;97808.16;4938212;29;1339;-75
2022/06/05 10:33:03;;;;;;;;;;;;;;;22.01;31.60;97805.44;4953806;29;977;-75
2022/06/05 10:35:46;;;;;;;;;;;;;;;21.96;31.76;97808.81;4891890;29;916;-75
2022/06/05 10:38:21;;;;;;;;;;;;;;;21.92;32.40;97811.00;4919052;29;1096;-75
2022/06/05 10:40:48;;;;;;;;;;;;;;;21.98;32.36;97806.34;4918950;29;1040;-75
2022/06/05 10:43:20;;;;;;;;;;;;;;;22.00;32.35;97803.84;4903342;29;1111;-75
2022/06/05 10:45:49;;;;;;;;;;;;;;;21.93;32.61;97801.25;4918918;29;1660;-75
2022/06/05 10:48:23;;;;;;;;;;;;;;;21.91;32.68;97790.34;4884294;29;1899;-75
2022/06/05 10:50:52;;;;;;;;;;;;;;;21.88;32.80;97790.47;4899826;29;1079;-75
2022/06/05 10:53:28;;;;;;;;;;;;;;;21.73;32.74;97784.47;4899967;29;989;-75
2022/06/05 10:56:03;;;;;;;;;;;;;;;21.90;32.54;97790.81;4899838;29;1020;-74
2022/06/05 10:58:28;;;;;;;;;;;;;;;21.82;32.88;97782.53;4899772;29;973;-74
2022/06/05 11:00:56;;;;;;;;;;;;;;;21.88;32.48;97790.47;4891688;29;1039;-73
2022/06/05 11:03:25;;;;;;;;;;;;;;;21.96;32.46;97786.94;4880863;29;951;-74
2022/06/05 11:06:08;;;;;;;;;;;;;;;21.79;32.73;97793.97;4880157;29;956;-74
2022/06/05 11:08:51;;;;;;;;;;;;;;;21.81;32.56;97792.28;4870162;29;1981;-74
2022/06/05 11:14:21;;;;;;;;;;;;;;;21.88;32.32;97779.16;4918673;29;1033;-73
2022/06/05 11:16:49;;;;;;;;;;;;;;;21.95;32.13;97779.72;4927734;29;1039;-75
2022/06/05 11:19:17;;;;;;;;;;;;;;;21.97;31.89;97763.06;4956290;28;1018;-76
2022/06/05 11:21:43;;;;;;;;;;;;;;;21.87;32.08;97758.53;4975563;28;1005;-75
2022/06/05 11:24:30;;;;;;;;;;;;;;;21.95;31.75;97750.59;4992319;28;1022;-76
2022/06/05 11:27:06;;;;;;;;;;;;;;;22.01;31.52;97743.88;4955948;28;1910;-75
2022/06/05 11:29:52;;;;;;;;;;;;;;;21.89;31.73;97741.06;4972319;28;954;-76
2022/06/05 11:32:25;;;;;;;;;;;;;;;21.89;31.54;97735.41;4956335;28;1114;-75
2022/06/05 11:34:56;;;;;;;;;;;;;;;21.81;31.87;97740.50;4955839;29;1030;-75
2022/06/05 11:37:40;;;;;;;;;;;;;;;21.78;31.44;97725.22;4956501;29;995;-75
2022/06/05 11:40:29;;;;;;;;;;;;;;;21.89;31.46;97736.19;4942257;29;1033;-75
2022/06/05 11:43:03;;;;;;;;;;;;;;;21.97;31.31;97736.78;4899109;29;1118;-75
2022/06/05 11:45:37;;;;;;;;;;;;;;;21.83;31.39;97744.47;4899032;29;1001;-75
2022/06/05 11:48:22;;;;;;;;;;;;;;;21.64;31.70;97753.97;4883547;29;1999;-75
2022/06/05 11:50:51;;;;;;;;;;;;;;;21.75;31.89;97765.75;4899039;29;974;-75
2022/06/05 11:53:34;;;;;;;;;;;;;;;21.87;31.34;97771.91;4898960;29;983;-75
2022/06/05 11:56:08;;;;;;;;;;;;;;;21.87;31.34;97757.75;4899050;29;919;-75
2022/06/05 11:58:54;;;;;;;;;;;;;;;21.78;31.79;97764.88;4912971;29;993;-75
2022/06/05 12:01:21;;;;;;;;;;;;;;;21.81;31.45;97746.97;4879824;29;1022;-75
2022/06/05 12:03:52;;;;;;;;;;;;;;;21.86;31.38;97739.94;4864686;29;959;-75
2022/06/05 12:06:38;;;;;;;;;;;;;;;22.00;30.92;97733.81;4861754;29;1962;-76
2022/06/05 12:09:05;;;;;;;;;;;;;;;21.87;31.27;97740.75;4898453;29;1286;-75
2022/06/05 12:11:39;;;;;;;;;;;;;;;21.76;31.45;97744.72;4898584;29;1075;-75
2022/06/05 12:14:13;;;;;;;;;;;;;;;21.82;31.22;97748.56;4898575;29;1010;-75
2022/06/05 12:16:45;;;;;;;;;;;;;;;21.68;31.49;97749.00;4898471;29;1418;-75
2022/06/05 12:19:10;;;;;;;;;;;;;;;21.77;31.31;97743.47;4902389;29;1031;-75
2022/06/05 12:21:39;;;;;;;;;;;;;;;21.78;31.42;97747.88;4917472;29;951;-75
2022/06/05 12:24:07;;;;;;;;;;;;;;;21.73;31.59;97733.47;4917218;29;1311;-75
2022/06/05 12:26:51;;;;;;;;;;;;;;;21.75;31.67;97737.44;4917149;29;1911;-75
2022/06/05 12:29:19;;;;;;;;;;;;;;;21.76;31.42;97736.22;4917224;29;930;-75
2022/06/05 12:31:48;;;;;;;;;;;;;;;21.81;31.32;97721.50;4917473;29;986;-75
2022/06/05 12:34:19;;;;;;;;;;;;;;;21.88;31.37;97722.50;4901634;29;936;-75
2022/06/05 12:36:46;;;;;;;;;;;;;;;22.05;30.80;97721.13;4901489;29;940;-75
2022/06/05 12:39:14;;;;;;;;;;;;;;;21.87;31.46;97726.59;4948175;28;1015;-75
2022/06/05 12:41:42;;;;;;;;;;;;;;;21.87;31.17;97720.91;4974576;28;942;-75
2022/06/05 12:44:16;;;;;;;;;;;;;;;21.86;31.45;97714.44;4974557;28;1042;-75
2022/06/05 12:46:44;;;;;;;;;;;;;;;21.84;31.34;97705.63;4974788;28;1971;-74
2022/06/05 12:49:23;;;;;;;;;;;;;;;21.89;31.31;97707.09;4974678;28;1089;-75
2022/06/05 12:51:56;;;;;;;;;;;;;;;21.90;31.06;97703.78;4959078;28;1019;-75
2022/06/05 12:54:23;;;;;;;;;;;;;;;21.83;31.20;97685.00;4977268;28;931;-75
2022/06/05 12:56:50;;;;;;;;;;;;;;;21.79;31.23;97692.81;4975596;28;836;-75
2022/06/05 12:59:21;;;;;;;;;;;;;;;21.96;31.06;97678.50;4975592;28;925;-75
2022/06/05 13:01:52;;;;;;;;;;;;;;;21.68;31.47;97675.38;4991361;28;895;-75
2022/06/05 13:04:20;;;;;;;;;;;;;;;21.96;31.10;97673.63;4991637;28;964;-75
2022/06/05 13:06:47;;;;;;;;;;;;;;;21.85;31.21;97665.50;4976833;28;1906;-74
2022/06/05 13:09:35;;;;;;;;;;;;;;;21.74;31.37;97667.88;4976886;28;1068;-74
2022/06/05 13:12:01;;;;;;;;;;;;;;;21.73;31.30;97666.31;4936046;29;1006;-75
2022/06/05 13:14:34;;;;;;;;;;;;;;;21.68;31.54;97664.03;4936046;29;1040;-75
2022/06/05 13:17:15;;;;;;;;;;;;;;;21.77;31.49;97650.00;4920570;29;1254;-75
2022/06/05 13:19:40;;;;;;;;;;;;;;;21.96;30.66;97655.84;4935875;29;984;-74
2022/06/05 13:22:09;;;;;;;;;;;;;;;21.79;31.37;97641.84;4936011;29;1052;-75
2022/06/05 13:24:45;;;;;;;;;;;;;;;21.78;31.21;97653.63;4920246;29;951;-75
2022/06/05 13:27:16;;;;;;;;;;;;;;;21.87;30.98;97658.59;4935818;29;1902;-74
2022/06/05 13:29:59;;;;;;;;;;;;;;;21.81;31.06;97672.53;4937165;29;968;-75